Terminal Aerodrome Forecast
Issued by NWS

Current Version | Previous Version | Text Only | Print | Product List | Glossary On
Versions: 1 2 3 4 5 6 7 8 9 10 11 12 13 14 15
000
FTUS44 KOUN 302320
TAFLAW
TAF
KLAW 302320Z 3100/3124 VRB04KT P6SM SCT040
     FM310200 15006KT P6SM SCT100 BKN200
     FM310800 13005KT P6SM BKN020 PROB30 3115/3121 4SM -TSRA
      OVC015CB=

USA.gov is the U.S. government's official web portal to all federal, state and local government web resources and services.